sensor_id;sensor_type;location;lat;lon;timestamp;P1;durP1;ratioP1;P2;durP2;ratioP2
54191;SDS011;40101;53.002;6.488;2023-02-15T00:01:09;30.25;;;20.75;;
54191;SDS011;40101;53.002;6.488;2023-02-15T00:03:38;35.13;;;23.33;;
54191;SDS011;40101;53.002;6.488;2023-02-15T00:06:04;33.95;;;23.88;;
54191;SDS011;40101;53.002;6.488;2023-02-15T00:08:33;32.55;;;23.05;;
54191;SDS011;40101;53.002;6.488;2023-02-15T00:11:09;44.05;;;28.58;;
54191;SDS011;40101;53.002;6.488;2023-02-15T00:13:40;42.95;;;30.10;;
54191;SDS011;40101;53.002;6.488;2023-02-15T00:16:07;34.05;;;25.20;;
54191;SDS011;40101;53.002;6.488;2023-02-15T00:18:40;41.33;;;27.13;;
54191;SDS011;40101;53.002;6.488;2023-02-15T00:21:08;38.22;;;26.60;;
54191;SDS011;40101;53.002;6.488;2023-02-15T00:23:35;39.70;;;28.38;;
54191;SDS011;40101;53.002;6.488;2023-02-15T00:26:10;34.00;;;24.52;;
54191;SDS011;40101;53.002;6.488;2023-02-15T00:28:37;30.55;;;21.45;;
54191;SDS011;40101;53.002;6.488;2023-02-15T00:31:07;32.05;;;21.92;;
54191;SDS011;40101;53.002;6.488;2023-02-15T00:33:34;27.52;;;20.33;;
54191;SDS011;40101;53.002;6.488;2023-02-15T00:36:04;27.00;;;19.90;;
54191;SDS011;40101;53.002;6.488;2023-02-15T00:38:36;30.45;;;19.95;;
54191;SDS011;40101;53.002;6.488;2023-02-15T00:41:03;30.25;;;20.80;;
54191;SDS011;40101;53.002;6.488;2023-02-15T00:43:38;33.65;;;23.83;;
54191;SDS011;40101;53.002;6.488;2023-02-15T00:46:06;36.10;;;23.80;;
54191;SDS011;40101;53.002;6.488;2023-02-15T00:48:35;37.22;;;23.60;;
54191;SDS011;40101;53.002;6.488;2023-02-15T01:08:16;35.83;;;23.20;;
54191;SDS011;40101;53.002;6.488;2023-02-15T01:10:54;37.10;;;24.30;;
54191;SDS011;40101;53.002;6.488;2023-02-15T01:13:35;31.70;;;22.38;;
54191;SDS011;40101;53.002;6.488;2023-02-15T01:16:01;36.55;;;23.35;;
54191;SDS011;40101;53.002;6.488;2023-02-15T01:18:27;36.13;;;23.23;;
54191;SDS011;40101;53.002;6.488;2023-02-15T01:20:57;34.67;;;23.15;;
54191;SDS011;40101;53.002;6.488;2023-02-15T01:23:49;37.92;;;23.33;;
54191;SDS011;40101;53.002;6.488;2023-02-15T01:26:42;33.80;;;23.75;;
54191;SDS011;40101;53.002;6.488;2023-02-15T01:29:23;36.28;;;24.20;;
54191;SDS011;40101;53.002;6.488;2023-02-15T01:32:40;33.03;;;22.17;;
54191;SDS011;40101;53.002;6.488;2023-02-15T01:35:17;42.92;;;27.80;;
54191;SDS011;40101;53.002;6.488;2023-02-15T01:38:06;39.10;;;26.00;;
54191;SDS011;40101;53.002;6.488;2023-02-15T01:40:34;35.03;;;25.23;;
54191;SDS011;40101;53.002;6.488;2023-02-15T01:43:12;33.85;;;23.70;;
54191;SDS011;40101;53.002;6.488;2023-02-15T01:46:12;38.03;;;26.00;;
54191;SDS011;40101;53.002;6.488;2023-02-15T01:49:27;84.70;;;33.22;;
54191;SDS011;40101;53.002;6.488;2023-02-15T01:52:00;43.80;;;28.65;;
54191;SDS011;40101;53.002;6.488;2023-02-15T01:54:56;47.53;;;29.27;;
54191;SDS011;40101;53.002;6.488;2023-02-15T01:57:30;45.72;;;30.80;;
54191;SDS011;40101;53.002;6.488;2023-02-15T02:00:00;51.17;;;31.05;;
54191;SDS011;40101;53.002;6.488;2023-02-15T02:02:31;119.25;;;34.15;;
54191;SDS011;40101;53.002;6.488;2023-02-15T02:05:01;213.25;;;33.63;;
54191;SDS011;40101;53.002;6.488;2023-02-15T02:07:42;125.57;;;29.77;;
54191;SDS011;40101;53.002;6.488;2023-02-15T02:10:12;46.15;;;22.63;;
54191;SDS011;40101;53.002;6.488;2023-02-15T02:12:40;52.88;;;24.38;;
54191;SDS011;40101;53.002;6.488;2023-02-15T02:15:07;41.45;;;24.80;;
54191;SDS011;40101;53.002;6.488;2023-02-15T02:23:23;36.92;;;27.83;;
54191;SDS011;40101;53.002;6.488;2023-02-15T02:43:48;28.95;;;22.55;;
54191;SDS011;40101;53.002;6.488;2023-02-15T02:46:28;30.27;;;22.63;;
54191;SDS011;40101;53.002;6.488;2023-02-15T02:49:00;29.40;;;21.98;;
54191;SDS011;40101;53.002;6.488;2023-02-15T02:51:26;33.05;;;23.40;;
54191;SDS011;40101;53.002;6.488;2023-02-15T02:53:53;33.45;;;25.40;;
54191;SDS011;40101;53.002;6.488;2023-02-15T02:56:55;33.17;;;24.30;;
54191;SDS011;40101;53.002;6.488;2023-02-15T02:59:19;42.25;;;27.58;;
54191;SDS011;40101;53.002;6.488;2023-02-15T03:01:52;30.83;;;22.52;;
54191;SDS011;40101;53.002;6.488;2023-02-15T03:04:28;35.45;;;26.70;;
54191;SDS011;40101;53.002;6.488;2023-02-15T03:07:03;34.75;;;23.95;;
54191;SDS011;40101;53.002;6.488;2023-02-15T03:09:35;37.22;;;26.05;;
54191;SDS011;40101;53.002;6.488;2023-02-15T03:12:14;36.15;;;25.73;;
54191;SDS011;40101;53.002;6.488;2023-02-15T03:14:46;42.75;;;29.45;;
54191;SDS011;40101;53.002;6.488;2023-02-15T03:17:20;33.10;;;25.33;;
54191;SDS011;40101;53.002;6.488;2023-02-15T03:19:48;33.88;;;25.67;;
54191;SDS011;40101;53.002;6.488;2023-02-15T03:24:59;31.42;;;24.50;;
54191;SDS011;40101;53.002;6.488;2023-02-15T03:27:33;31.92;;;23.23;;
54191;SDS011;40101;53.002;6.488;2023-02-15T03:30:04;34.38;;;25.60;;
54191;SDS011;40101;53.002;6.488;2023-02-15T03:32:34;30.92;;;23.98;;
54191;SDS011;40101;53.002;6.488;2023-02-15T03:35:02;32.45;;;23.27;;
54191;SDS011;40101;53.002;6.488;2023-02-15T03:37:36;38.17;;;25.30;;
54191;SDS011;40101;53.002;6.488;2023-02-15T03:40:29;52.50;;;33.22;;
54191;SDS011;40101;53.002;6.488;2023-02-15T03:43:26;49.95;;;31.05;;
54191;SDS011;40101;53.002;6.488;2023-02-15T03:49:04;49.38;;;32.03;;
54191;SDS011;40101;53.002;6.488;2023-02-15T03:51:37;54.17;;;34.05;;
54191;SDS011;40101;53.002;6.488;2023-02-15T03:56:39;45.30;;;31.85;;
54191;SDS011;40101;53.002;6.488;2023-02-15T03:59:09;51.85;;;35.28;;
54191;SDS011;40101;53.002;6.488;2023-02-15T04:04:43;58.25;;;38.72;;
54191;SDS011;40101;53.002;6.488;2023-02-15T04:07:11;65.53;;;39.15;;
54191;SDS011;40101;53.002;6.488;2023-02-15T04:09:37;54.30;;;36.53;;
54191;SDS011;40101;53.002;6.488;2023-02-15T04:12:21;66.13;;;40.45;;
54191;SDS011;40101;53.002;6.488;2023-02-15T04:14:47;52.60;;;35.45;;
54191;SDS011;40101;53.002;6.488;2023-02-15T04:17:31;47.67;;;30.67;;
54191;SDS011;40101;53.002;6.488;2023-02-15T04:19:57;51.33;;;31.77;;
54191;SDS011;40101;53.002;6.488;2023-02-15T04:22:48;52.95;;;33.72;;
54191;SDS011;40101;53.002;6.488;2023-02-15T04:25:32;57.47;;;35.80;;
54191;SDS011;40101;53.002;6.488;2023-02-15T04:28:00;52.28;;;34.58;;
54191;SDS011;40101;53.002;6.488;2023-02-15T04:30:26;50.97;;;33.47;;
54191;SDS011;40101;53.002;6.488;2023-02-15T04:32:53;49.13;;;33.78;;
54191;SDS011;40101;53.002;6.488;2023-02-15T04:35:20;50.17;;;33.72;;
54191;SDS011;40101;53.002;6.488;2023-02-15T04:37:45;48.70;;;32.35;;
54191;SDS011;40101;53.002;6.488;2023-02-15T04:40:12;53.53;;;35.85;;
54191;SDS011;40101;53.002;6.488;2023-02-15T04:42:38;58.35;;;37.22;;
54191;SDS011;40101;53.002;6.488;2023-02-15T04:45:04;45.85;;;31.80;;
54191;SDS011;40101;53.002;6.488;2023-02-15T04:47:31;54.50;;;37.05;;
54191;SDS011;40101;53.002;6.488;2023-02-15T04:49:59;65.85;;;41.25;;
54191;SDS011;40101;53.002;6.488;2023-02-15T04:52:25;64.53;;;40.45;;
54191;SDS011;40101;53.002;6.488;2023-02-15T04:54:50;61.10;;;40.38;;
54191;SDS011;40101;53.002;6.488;2023-02-15T04:57:19;66.05;;;40.33;;
54191;SDS011;40101;53.002;6.488;2023-02-15T04:59:44;219.52;;;53.28;;
54191;SDS011;40101;53.002;6.488;2023-02-15T05:02:10;100.65;;;36.90;;
54191;SDS011;40101;53.002;6.488;2023-02-15T05:04:36;204.35;;;47.00;;
54191;SDS011;40101;53.002;6.488;2023-02-15T05:07:07;50.08;;;33.97;;
54191;SDS011;40101;53.002;6.488;2023-02-15T05:09:33;49.80;;;32.78;;
54191;SDS011;40101;53.002;6.488;2023-02-15T05:11:59;56.00;;;35.53;;
54191;SDS011;40101;53.002;6.488;2023-02-15T05:14:25;243.60;;;47.00;;
54191;SDS011;40101;53.002;6.488;2023-02-15T05:16:50;142.02;;;44.97;;
54191;SDS011;40101;53.002;6.488;2023-02-15T05:19:16;104.70;;;41.47;;
54191;SDS011;40101;53.002;6.488;2023-02-15T05:21:42;193.23;;;49.78;;
54191;SDS011;40101;53.002;6.488;2023-02-15T05:24:07;171.38;;;46.00;;
54191;SDS011;40101;53.002;6.488;2023-02-15T05:26:51;131.77;;;41.30;;
54191;SDS011;40101;53.002;6.488;2023-02-15T05:29:36;108.47;;;40.40;;
54191;SDS011;40101;53.002;6.488;2023-02-15T05:32:01;121.53;;;39.90;;
54191;SDS011;40101;53.002;6.488;2023-02-15T05:34:29;206.43;;;49.20;;
54191;SDS011;40101;53.002;6.488;2023-02-15T05:36:55;145.68;;;44.72;;
54191;SDS011;40101;53.002;6.488;2023-02-15T05:39:20;107.90;;;43.67;;
54191;SDS011;40101;53.002;6.488;2023-02-15T05:41:46;107.10;;;44.55;;
54191;SDS011;40101;53.002;6.488;2023-02-15T05:44:12;69.75;;;43.80;;
54191;SDS011;40101;53.002;6.488;2023-02-15T05:46:37;73.72;;;42.95;;
54191;SDS011;40101;53.002;6.488;2023-02-15T05:49:03;69.57;;;44.08;;
54191;SDS011;40101;53.002;6.488;2023-02-15T05:51:29;71.40;;;45.03;;
54191;SDS011;40101;53.002;6.488;2023-02-15T05:53:54;75.25;;;43.75;;
54191;SDS011;40101;53.002;6.488;2023-02-15T05:56:20;63.97;;;41.05;;
54191;SDS011;40101;53.002;6.488;2023-02-15T05:58:45;69.82;;;43.15;;
54191;SDS011;40101;53.002;6.488;2023-02-15T06:01:12;64.90;;;41.50;;
54191;SDS011;40101;53.002;6.488;2023-02-15T06:03:40;62.83;;;40.08;;
54191;SDS011;40101;53.002;6.488;2023-02-15T06:06:06;61.05;;;41.00;;
54191;SDS011;40101;53.002;6.488;2023-02-15T06:08:35;61.58;;;39.17;;
54191;SDS011;40101;53.002;6.488;2023-02-15T06:11:05;51.88;;;35.85;;
54191;SDS011;40101;53.002;6.488;2023-02-15T06:13:31;54.30;;;35.72;;
54191;SDS011;40101;53.002;6.488;2023-02-15T06:15:57;58.15;;;36.53;;
54191;SDS011;40101;53.002;6.488;2023-02-15T06:18:23;50.42;;;34.90;;
54191;SDS011;40101;53.002;6.488;2023-02-15T06:20:49;55.88;;;35.90;;
54191;SDS011;40101;53.002;6.488;2023-02-15T06:23:15;55.72;;;37.03;;
54191;SDS011;40101;53.002;6.488;2023-02-15T06:25:41;58.55;;;37.72;;
54191;SDS011;40101;53.002;6.488;2023-02-15T06:28:06;59.40;;;40.33;;
54191;SDS011;40101;53.002;6.488;2023-02-15T06:30:32;61.60;;;41.20;;
54191;SDS011;40101;53.002;6.488;2023-02-15T06:32:58;67.30;;;39.42;;
54191;SDS011;40101;53.002;6.488;2023-02-15T06:35:24;67.47;;;40.38;;
54191;SDS011;40101;53.002;6.488;2023-02-15T06:37:50;60.00;;;37.67;;
54191;SDS011;40101;53.002;6.488;2023-02-15T06:40:16;61.15;;;40.17;;
54191;SDS011;40101;53.002;6.488;2023-02-15T06:42:41;61.35;;;39.78;;
54191;SDS011;40101;53.002;6.488;2023-02-15T06:45:08;63.55;;;38.65;;
54191;SDS011;40101;53.002;6.488;2023-02-15T06:47:37;62.40;;;39.95;;
54191;SDS011;40101;53.002;6.488;2023-02-15T06:50:03;57.15;;;38.28;;
54191;SDS011;40101;53.002;6.488;2023-02-15T06:52:30;56.92;;;35.95;;
54191;SDS011;40101;53.002;6.488;2023-02-15T06:54:56;58.90;;;38.80;;
54191;SDS011;40101;53.002;6.488;2023-02-15T06:57:21;60.08;;;38.33;;
54191;SDS011;40101;53.002;6.488;2023-02-15T06:59:47;57.65;;;37.58;;
54191;SDS011;40101;53.002;6.488;2023-02-15T07:02:13;64.47;;;41.20;;
54191;SDS011;40101;53.002;6.488;2023-02-15T07:04:39;60.90;;;37.67;;
54191;SDS011;40101;53.002;6.488;2023-02-15T07:07:08;55.45;;;35.60;;
54191;SDS011;40101;53.002;6.488;2023-02-15T07:09:35;61.67;;;38.05;;
54191;SDS011;40101;53.002;6.488;2023-02-15T07:12:01;62.70;;;38.38;;
54191;SDS011;40101;53.002;6.488;2023-02-15T07:14:46;57.65;;;38.50;;
54191;SDS011;40101;53.002;6.488;2023-02-15T07:17:12;62.90;;;38.72;;
54191;SDS011;40101;53.002;6.488;2023-02-15T07:19:37;59.28;;;37.33;;
54191;SDS011;40101;53.002;6.488;2023-02-15T07:22:03;65.88;;;40.60;;
54191;SDS011;40101;53.002;6.488;2023-02-15T07:24:30;59.28;;;39.10;;
54191;SDS011;40101;53.002;6.488;2023-02-15T07:26:56;65.45;;;38.63;;
54191;SDS011;40101;53.002;6.488;2023-02-15T07:29:22;62.60;;;39.67;;
54191;SDS011;40101;53.002;6.488;2023-02-15T07:31:48;60.28;;;38.17;;
54191;SDS011;40101;53.002;6.488;2023-02-15T07:34:14;69.25;;;42.25;;
54191;SDS011;40101;53.002;6.488;2023-02-15T07:36:41;64.50;;;40.88;;
54191;SDS011;40101;53.002;6.488;2023-02-15T07:39:09;58.63;;;38.13;;
54191;SDS011;40101;53.002;6.488;2023-02-15T07:41:35;58.63;;;39.17;;
54191;SDS011;40101;53.002;6.488;2023-02-15T07:44:01;58.92;;;39.22;;
54191;SDS011;40101;53.002;6.488;2023-02-15T07:46:27;59.17;;;39.17;;
54191;SDS011;40101;53.002;6.488;2023-02-15T07:48:53;58.65;;;37.53;;
54191;SDS011;40101;53.002;6.488;2023-02-15T07:51:19;51.17;;;36.05;;
54191;SDS011;40101;53.002;6.488;2023-02-15T07:53:45;47.83;;;33.50;;
54191;SDS011;40101;53.002;6.488;2023-02-15T07:56:12;49.05;;;33.13;;
54191;SDS011;40101;53.002;6.488;2023-02-15T07:58:38;41.92;;;30.95;;
54191;SDS011;40101;53.002;6.488;2023-02-15T08:01:21;40.90;;;28.38;;
54191;SDS011;40101;53.002;6.488;2023-02-15T08:03:52;36.55;;;27.38;;
54191;SDS011;40101;53.002;6.488;2023-02-15T08:06:19;34.00;;;24.88;;
54191;SDS011;40101;53.002;6.488;2023-02-15T08:08:45;32.35;;;23.70;;
54191;SDS011;40101;53.002;6.488;2023-02-15T08:13:56;32.33;;;22.70;;
54191;SDS011;40101;53.002;6.488;2023-02-15T08:19:07;30.63;;;22.52;;
54191;SDS011;40101;53.002;6.488;2023-02-15T08:24:19;33.03;;;22.20;;
54191;SDS011;40101;53.002;6.488;2023-02-15T08:26:46;29.92;;;21.42;;
54191;SDS011;40101;53.002;6.488;2023-02-15T08:29:14;28.70;;;21.80;;
54191;SDS011;40101;53.002;6.488;2023-02-15T08:31:41;28.52;;;20.67;;
54191;SDS011;40101;53.002;6.488;2023-02-15T08:34:11;31.80;;;22.27;;
54191;SDS011;40101;53.002;6.488;2023-02-15T08:36:39;31.10;;;22.48;;
54191;SDS011;40101;53.002;6.488;2023-02-15T08:39:05;29.92;;;22.90;;
54191;SDS011;40101;53.002;6.488;2023-02-15T08:41:32;32.75;;;23.75;;
54191;SDS011;40101;53.002;6.488;2023-02-15T08:44:06;27.27;;;21.77;;
54191;SDS011;40101;53.002;6.488;2023-02-15T08:46:33;29.92;;;22.15;;
54191;SDS011;40101;53.002;6.488;2023-02-15T08:49:01;31.13;;;24.05;;
54191;SDS011;40101;53.002;6.488;2023-02-15T08:51:28;31.35;;;23.10;;
54191;SDS011;40101;53.002;6.488;2023-02-15T08:53:56;25.88;;;20.30;;
54191;SDS011;40101;53.002;6.488;2023-02-15T08:56:27;31.70;;;22.20;;
54191;SDS011;40101;53.002;6.488;2023-02-15T08:58:56;28.95;;;21.65;;
54191;SDS011;40101;53.002;6.488;2023-02-15T09:01:26;26.73;;;20.58;;
54191;SDS011;40101;53.002;6.488;2023-02-15T09:03:58;33.50;;;23.60;;
54191;SDS011;40101;53.002;6.488;2023-02-15T09:06:29;28.17;;;21.63;;
54191;SDS011;40101;53.002;6.488;2023-02-15T09:08:57;29.40;;;22.15;;
54191;SDS011;40101;53.002;6.488;2023-02-15T09:11:24;29.85;;;21.88;;
54191;SDS011;40101;53.002;6.488;2023-02-15T09:13:56;35.45;;;23.95;;
54191;SDS011;40101;53.002;6.488;2023-02-15T09:16:24;35.95;;;23.40;;
54191;SDS011;40101;53.002;6.488;2023-02-15T09:19:00;33.63;;;24.33;;
54191;SDS011;40101;53.002;6.488;2023-02-15T09:21:27;34.47;;;24.50;;
54191;SDS011;40101;53.002;6.488;2023-02-15T09:24:04;30.75;;;23.45;;
54191;SDS011;40101;53.002;6.488;2023-02-15T09:26:32;44.47;;;24.98;;
54191;SDS011;40101;53.002;6.488;2023-02-15T09:31:49;30.98;;;23.15;;
54191;SDS011;40101;53.002;6.488;2023-02-15T09:34:16;35.08;;;24.80;;
54191;SDS011;40101;53.002;6.488;2023-02-15T09:36:53;34.42;;;24.02;;
54191;SDS011;40101;53.002;6.488;2023-02-15T09:39:34;32.57;;;24.30;;
54191;SDS011;40101;53.002;6.488;2023-02-15T09:48:41;39.90;;;25.77;;
54191;SDS011;40101;53.002;6.488;2023-02-15T09:57:29;37.53;;;26.33;;
54191;SDS011;40101;53.002;6.488;2023-02-15T10:33:58;35.70;;;28.05;;
54191;SDS011;40101;53.002;6.488;2023-02-15T10:36:47;36.75;;;27.20;;
54191;SDS011;40101;53.002;6.488;2023-02-15T12:16:23;46.13;;;31.80;;
54191;SDS011;40101;53.002;6.488;2023-02-15T12:18:51;45.08;;;31.10;;
54191;SDS011;40101;53.002;6.488;2023-02-15T12:21:26;51.17;;;33.35;;
54191;SDS011;40101;53.002;6.488;2023-02-15T12:33:49;42.92;;;29.17;;
54191;SDS011;40101;53.002;6.488;2023-02-15T12:50:25;41.38;;;26.98;;
54191;SDS011;40101;53.002;6.488;2023-02-15T12:53:06;37.75;;;28.15;;
54191;SDS011;40101;53.002;6.488;2023-02-15T13:16:52;44.67;;;27.67;;
54191;SDS011;40101;53.002;6.488;2023-02-15T13:43:57;38.60;;;26.10;;
54191;SDS011;40101;53.002;6.488;2023-02-15T14:47:24;42.45;;;27.85;;
54191;SDS011;40101;53.002;6.488;2023-02-15T15:16:01;37.25;;;25.95;;
54191;SDS011;40101;53.002;6.488;2023-02-15T15:51:12;37.58;;;25.35;;
54191;SDS011;40101;53.002;6.488;2023-02-15T16:02:35;38.20;;;25.92;;
54191;SDS011;40101;53.002;6.488;2023-02-15T16:05:15;38.67;;;25.05;;
54191;SDS011;40101;53.002;6.488;2023-02-15T16:18:04;34.85;;;23.58;;
54191;SDS011;40101;53.002;6.488;2023-02-15T17:03:49;40.70;;;24.92;;
54191;SDS011;40101;53.002;6.488;2023-02-15T17:06:24;38.10;;;25.67;;
54191;SDS011;40101;53.002;6.488;2023-02-15T17:08:52;37.77;;;24.07;;
54191;SDS011;40101;53.002;6.488;2023-02-15T17:11:35;39.70;;;24.40;;
54191;SDS011;40101;53.002;6.488;2023-02-15T17:16:32;36.95;;;24.00;;
54191;SDS011;40101;53.002;6.488;2023-02-15T17:19:08;42.88;;;26.10;;
54191;SDS011;40101;53.002;6.488;2023-02-15T17:21:41;40.92;;;26.08;;
54191;SDS011;40101;53.002;6.488;2023-02-15T17:24:16;40.40;;;25.10;;
54191;SDS011;40101;53.002;6.488;2023-02-15T17:27:04;43.25;;;26.13;;
54191;SDS011;40101;53.002;6.488;2023-02-15T17:29:52;42.15;;;25.30;;
54191;SDS011;40101;53.002;6.488;2023-02-15T17:32:23;42.75;;;24.77;;
54191;SDS011;40101;53.002;6.488;2023-02-15T17:41:45;40.15;;;25.30;;
54191;SDS011;40101;53.002;6.488;2023-02-15T17:44:12;38.55;;;24.52;;
54191;SDS011;40101;53.002;6.488;2023-02-15T17:46:40;42.97;;;26.27;;
54191;SDS011;40101;53.002;6.488;2023-02-15T17:49:10;45.17;;;27.73;;
54191;SDS011;40101;53.002;6.488;2023-02-15T17:51:43;40.85;;;25.10;;
54191;SDS011;40101;53.002;6.488;2023-02-15T17:54:09;41.05;;;26.45;;
54191;SDS011;40101;53.002;6.488;2023-02-15T17:56:56;42.33;;;26.90;;
54191;SDS011;40101;53.002;6.488;2023-02-15T17:59:30;40.75;;;26.10;;
54191;SDS011;40101;53.002;6.488;2023-02-15T18:01:56;48.58;;;28.73;;
54191;SDS011;40101;53.002;6.488;2023-02-15T18:04:40;37.40;;;25.95;;
54191;SDS011;40101;53.002;6.488;2023-02-15T18:07:25;41.70;;;27.10;;
54191;SDS011;40101;53.002;6.488;2023-02-15T18:10:23;39.08;;;24.45;;
54191;SDS011;40101;53.002;6.488;2023-02-15T18:13:08;46.63;;;25.65;;
54191;SDS011;40101;53.002;6.488;2023-02-15T18:15:33;38.40;;;24.80;;
54191;SDS011;40101;53.002;6.488;2023-02-15T18:17:59;42.00;;;26.40;;
54191;SDS011;40101;53.002;6.488;2023-02-15T18:23:32;43.55;;;25.63;;
54191;SDS011;40101;53.002;6.488;2023-02-15T18:25:58;39.05;;;24.83;;
54191;SDS011;40101;53.002;6.488;2023-02-15T18:28:24;45.97;;;27.65;;
54191;SDS011;40101;53.002;6.488;2023-02-15T18:30:49;42.13;;;28.00;;
54191;SDS011;40101;53.002;6.488;2023-02-15T18:33:28;41.60;;;25.85;;
54191;SDS011;40101;53.002;6.488;2023-02-15T18:36:03;41.55;;;26.83;;
54191;SDS011;40101;53.002;6.488;2023-02-15T18:38:31;43.90;;;26.33;;
54191;SDS011;40101;53.002;6.488;2023-02-15T18:40:57;45.50;;;26.92;;
54191;SDS011;40101;53.002;6.488;2023-02-15T18:43:23;41.53;;;27.05;;
54191;SDS011;40101;53.002;6.488;2023-02-15T18:49:31;44.85;;;29.08;;
54191;SDS011;40101;53.002;6.488;2023-02-15T18:51:57;43.83;;;26.48;;
54191;SDS011;40101;53.002;6.488;2023-02-15T18:54:23;48.10;;;27.40;;
54191;SDS011;40101;53.002;6.488;2023-02-15T18:57:11;44.05;;;27.77;;
54191;SDS011;40101;53.002;6.488;2023-02-15T18:59:38;50.72;;;30.23;;
54191;SDS011;40101;53.002;6.488;2023-02-15T19:02:11;45.72;;;29.30;;
54191;SDS011;40101;53.002;6.488;2023-02-15T19:04:38;58.33;;;30.20;;
54191;SDS011;40101;53.002;6.488;2023-02-15T19:07:03;43.33;;;28.83;;
54191;SDS011;40101;53.002;6.488;2023-02-15T19:09:30;46.33;;;29.95;;
54191;SDS011;40101;53.002;6.488;2023-02-15T19:11:56;50.10;;;32.38;;
54191;SDS011;40101;53.002;6.488;2023-02-15T19:14:47;51.03;;;31.05;;
54191;SDS011;40101;53.002;6.488;2023-02-15T19:24:00;50.70;;;30.85;;
54191;SDS011;40101;53.002;6.488;2023-02-15T19:27:05;48.58;;;32.35;;
54191;SDS011;40101;53.002;6.488;2023-02-15T19:29:32;49.22;;;32.47;;
54191;SDS011;40101;53.002;6.488;2023-02-15T19:35:13;49.97;;;32.33;;
54191;SDS011;40101;53.002;6.488;2023-02-15T19:37:42;50.05;;;32.10;;
54191;SDS011;40101;53.002;6.488;2023-02-15T19:40:25;51.67;;;31.65;;
54191;SDS011;40101;53.002;6.488;2023-02-15T19:42:55;50.90;;;31.60;;
54191;SDS011;40101;53.002;6.488;2023-02-15T19:45:28;53.45;;;31.92;;
54191;SDS011;40101;53.002;6.488;2023-02-15T19:48:04;48.42;;;32.67;;
54191;SDS011;40101;53.002;6.488;2023-02-15T19:50:30;54.33;;;35.70;;
54191;SDS011;40101;53.002;6.488;2023-02-15T19:52:58;55.25;;;34.75;;
54191;SDS011;40101;53.002;6.488;2023-02-15T19:58:36;49.33;;;31.90;;
54191;SDS011;40101;53.002;6.488;2023-02-15T20:01:17;58.70;;;34.70;;
54191;SDS011;40101;53.002;6.488;2023-02-15T20:04:03;54.72;;;33.70;;
54191;SDS011;40101;53.002;6.488;2023-02-15T20:06:29;52.50;;;34.47;;
54191;SDS011;40101;53.002;6.488;2023-02-15T20:09:04;53.95;;;34.45;;
54191;SDS011;40101;53.002;6.488;2023-02-15T20:11:55;56.58;;;33.85;;
54191;SDS011;40101;53.002;6.488;2023-02-15T20:14:22;52.05;;;33.80;;
54191;SDS011;40101;53.002;6.488;2023-02-15T20:16:51;52.88;;;32.25;;
54191;SDS011;40101;53.002;6.488;2023-02-15T20:19:17;55.85;;;33.95;;
54191;SDS011;40101;53.002;6.488;2023-02-15T20:21:46;51.85;;;33.13;;
54191;SDS011;40101;53.002;6.488;2023-02-15T20:24:19;54.28;;;34.90;;
54191;SDS011;40101;53.002;6.488;2023-02-15T20:26:46;52.78;;;33.92;;
54191;SDS011;40101;53.002;6.488;2023-02-15T20:32:17;48.30;;;32.47;;
54191;SDS011;40101;53.002;6.488;2023-02-15T20:34:43;56.30;;;34.72;;
54191;SDS011;40101;53.002;6.488;2023-02-15T20:37:26;57.58;;;35.33;;
54191;SDS011;40101;53.002;6.488;2023-02-15T20:39:56;61.65;;;36.78;;
54191;SDS011;40101;53.002;6.488;2023-02-15T20:42:22;59.85;;;36.53;;
54191;SDS011;40101;53.002;6.488;2023-02-15T20:44:47;54.85;;;35.17;;
54191;SDS011;40101;53.002;6.488;2023-02-15T20:47:13;59.25;;;36.72;;
54191;SDS011;40101;53.002;6.488;2023-02-15T20:49:44;60.10;;;36.50;;
54191;SDS011;40101;53.002;6.488;2023-02-15T20:52:18;60.47;;;38.47;;
54191;SDS011;40101;53.002;6.488;2023-02-15T20:54:54;66.07;;;37.75;;
54191;SDS011;40101;53.002;6.488;2023-02-15T20:57:23;59.60;;;38.63;;
54191;SDS011;40101;53.002;6.488;2023-02-15T21:03:05;57.20;;;37.70;;
54191;SDS011;40101;53.002;6.488;2023-02-15T21:06:05;59.53;;;37.25;;
54191;SDS011;40101;53.002;6.488;2023-02-15T21:08:53;59.67;;;37.55;;
54191;SDS011;40101;53.002;6.488;2023-02-15T21:11:42;58.00;;;36.72;;
54191;SDS011;40101;53.002;6.488;2023-02-15T21:17:27;64.50;;;39.50;;
54191;SDS011;40101;53.002;6.488;2023-02-15T21:20:08;61.97;;;37.03;;
54191;SDS011;40101;53.002;6.488;2023-02-15T21:23:17;63.60;;;38.70;;
54191;SDS011;40101;53.002;6.488;2023-02-15T21:26:21;60.65;;;38.15;;
54191;SDS011;40101;53.002;6.488;2023-02-15T21:28:47;70.80;;;39.03;;
54191;SDS011;40101;53.002;6.488;2023-02-15T21:31:35;65.97;;;37.88;;
54191;SDS011;40101;53.002;6.488;2023-02-15T21:37:56;62.60;;;38.65;;
54191;SDS011;40101;53.002;6.488;2023-02-15T21:40:25;60.45;;;38.78;;
54191;SDS011;40101;53.002;6.488;2023-02-15T21:43:16;61.58;;;37.88;;
54191;SDS011;40101;53.002;6.488;2023-02-15T21:46:11;61.53;;;38.05;;
54191;SDS011;40101;53.002;6.488;2023-02-15T21:49:01;69.20;;;39.25;;
54191;SDS011;40101;53.002;6.488;2023-02-15T21:51:28;66.25;;;39.38;;
54191;SDS011;40101;53.002;6.488;2023-02-15T21:54:13;58.30;;;37.83;;
54191;SDS011;40101;53.002;6.488;2023-02-15T21:56:41;64.93;;;40.03;;
54191;SDS011;40101;53.002;6.488;2023-02-15T21:59:14;63.55;;;39.80;;
54191;SDS011;40101;53.002;6.488;2023-02-15T22:01:41;62.83;;;39.78;;
54191;SDS011;40101;53.002;6.488;2023-02-15T22:04:18;64.00;;;38.70;;
54191;SDS011;40101;53.002;6.488;2023-02-15T22:06:50;62.92;;;39.83;;
54191;SDS011;40101;53.002;6.488;2023-02-15T22:09:22;58.55;;;37.35;;
54191;SDS011;40101;53.002;6.488;2023-02-15T22:11:50;62.20;;;39.70;;
54191;SDS011;40101;53.002;6.488;2023-02-15T22:16:58;61.97;;;38.03;;
54191;SDS011;40101;53.002;6.488;2023-02-15T22:19:23;62.80;;;39.05;;
54191;SDS011;40101;53.002;6.488;2023-02-15T22:21:51;65.22;;;39.17;;
54191;SDS011;40101;53.002;6.488;2023-02-15T22:24:23;61.35;;;39.08;;
54191;SDS011;40101;53.002;6.488;2023-02-15T22:26:55;61.97;;;38.25;;
54191;SDS011;40101;53.002;6.488;2023-02-15T22:29:21;62.33;;;36.72;;
54191;SDS011;40101;53.002;6.488;2023-02-15T22:31:50;63.47;;;39.33;;
54191;SDS011;40101;53.002;6.488;2023-02-15T22:34:23;65.28;;;39.28;;
54191;SDS011;40101;53.002;6.488;2023-02-15T22:36:49;72.75;;;41.45;;
54191;SDS011;40101;53.002;6.488;2023-02-15T22:39:15;65.53;;;39.03;;
54191;SDS011;40101;53.002;6.488;2023-02-15T22:41:41;72.10;;;40.58;;
54191;SDS011;40101;53.002;6.488;2023-02-15T22:44:10;65.65;;;40.08;;
54191;SDS011;40101;53.002;6.488;2023-02-15T22:46:37;68.00;;;38.17;;
54191;SDS011;40101;53.002;6.488;2023-02-15T22:49:04;67.80;;;39.83;;
54191;SDS011;40101;53.002;6.488;2023-02-15T22:51:30;70.97;;;41.15;;
54191;SDS011;40101;53.002;6.488;2023-02-15T22:53:56;64.15;;;38.28;;
54191;SDS011;40101;53.002;6.488;2023-02-15T22:56:24;69.45;;;40.83;;
54191;SDS011;40101;53.002;6.488;2023-02-15T22:59:04;67.57;;;39.72;;
54191;SDS011;40101;53.002;6.488;2023-02-15T23:01:33;68.75;;;39.47;;
54191;SDS011;40101;53.002;6.488;2023-02-15T23:04:08;60.47;;;37.83;;
54191;SDS011;40101;53.002;6.488;2023-02-15T23:06:44;64.25;;;38.47;;
54191;SDS011;40101;53.002;6.488;2023-02-15T23:09:10;63.10;;;39.53;;
54191;SDS011;40101;53.002;6.488;2023-02-15T23:11:36;65.43;;;37.80;;